createdAt,value
2022-09-16T00:00:29.886Z,65.94
2022-09-16T00:02:57.239Z,65.82
2022-09-16T00:05:24.538Z,65.81
2022-09-16T00:07:51.256Z,65.92
2022-09-16T00:10:18.202Z,65.68
2022-09-16T00:12:44.948Z,66.00
2022-09-16T00:15:11.807Z,66.09
2022-09-16T00:17:38.524Z,65.89
2022-09-16T00:20:07.269Z,66.13
2022-09-16T00:22:34.365Z,66.09
2022-09-16T00:25:01.090Z,66.06
2022-09-16T00:27:27.955Z,66.03
2022-09-16T00:29:54.698Z,66.10
2022-09-16T00:32:21.458Z,66.05
2022-09-16T00:34:48.895Z,66.00
2022-09-16T00:37:15.638Z,66.04
2022-09-16T00:39:42.508Z,66.04
2022-09-16T00:42:12.284Z,66.28
2022-09-16T00:44:57.822Z,66.25
2022-09-16T00:47:31.738Z,66.35
2022-09-16T00:50:08.331Z,66.25
2022-09-16T00:52:35.722Z,66.30
2022-09-16T00:55:07.362Z,66.17
2022-09-16T00:57:34.612Z,66.37
2022-09-16T01:00:01.943Z,66.66
2022-09-16T01:02:28.730Z,66.43
2022-09-16T01:05:08.426Z,66.51
2022-09-16T01:07:45.642Z,66.49
2022-09-16T01:10:13.838Z,66.60
2022-09-16T01:12:43.008Z,66.51
2022-09-16T01:15:10.846Z,66.45
2022-09-16T01:17:43.800Z,66.57
2022-09-16T01:20:32.179Z,66.66
2022-09-16T01:23:14.374Z,66.68
2022-09-16T01:26:12.527Z,66.67
2022-09-16T01:29:02.003Z,66.76
2022-09-16T01:31:43.252Z,66.75
2022-09-16T01:34:47.507Z,66.66
2022-09-16T01:37:31.006Z,66.75
2022-09-16T01:40:12.711Z,66.85
2022-09-16T01:42:57.889Z,66.84
2022-09-16T01:45:36.443Z,67.17
2022-09-16T01:48:20.274Z,66.81
2022-09-16T01:51:19.177Z,66.95
2022-09-16T01:53:51.142Z,66.97
2022-09-16T01:56:22.249Z,66.95
2022-09-16T01:58:55.096Z,66.84
2022-09-16T02:01:26.509Z,66.90
2022-09-16T02:03:59.233Z,67.24
2022-09-16T02:06:27.654Z,66.86
2022-09-16T02:08:57.942Z,66.83
2022-09-16T02:11:25.398Z,66.98
2022-09-16T02:13:55.673Z,66.87
2022-09-16T02:16:56.423Z,66.92
2022-09-16T02:19:26.887Z,66.95
2022-09-16T02:21:55.538Z,66.97
2022-09-16T02:24:22.709Z,66.94
2022-09-16T02:30:36.774Z,67.20
2022-09-16T02:33:07.448Z,67.19
2022-09-16T02:35:36.910Z,67.27
2022-09-16T02:38:29.284Z,67.08
2022-09-16T02:40:57.517Z,67.28
2022-09-16T02:43:24.473Z,67.03
2022-09-16T02:46:02.630Z,67.16
2022-09-16T02:49:05.929Z,67.14
2022-09-16T02:51:37.339Z,67.30
2022-09-16T02:54:20.374Z,67.25
2022-09-16T02:56:47.366Z,67.15
2022-09-16T02:59:15.119Z,67.20
2022-09-16T03:01:44.528Z,67.31
2022-09-16T03:04:14.241Z,67.39
2022-09-16T03:06:41.132Z,67.19
2022-09-16T03:09:12.849Z,67.18
2022-09-16T03:12:01.636Z,67.23
2022-09-16T03:14:33.052Z,67.23
2022-09-16T03:17:11.914Z,67.17
2022-09-16T03:19:49.493Z,67.35
2022-09-16T03:22:23.607Z,67.30
2022-09-16T03:25:12.978Z,67.22
2022-09-16T03:27:46.837Z,67.06
2022-09-16T03:30:13.659Z,67.32
2022-09-16T03:32:49.540Z,67.31
2022-09-16T03:35:38.540Z,67.43
2022-09-16T03:38:06.562Z,67.42
2022-09-16T03:40:34.018Z,67.79
2022-09-16T03:43:01.017Z,67.35
2022-09-16T03:45:27.748Z,67.40
2022-09-16T03:47:54.509Z,67.38
2022-09-16T03:50:21.579Z,67.48
2022-09-16T03:52:48.317Z,67.41
2022-09-16T03:55:16.785Z,67.43
2022-09-16T03:57:43.556Z,67.49
2022-09-16T04:00:11.312Z,67.64
2022-09-16T04:02:38.129Z,67.24
2022-09-16T04:05:05.173Z,67.25
2022-09-16T04:07:33.441Z,67.40
2022-09-16T04:10:00.305Z,67.33
2022-09-16T04:12:27.011Z,67.43
2022-09-16T04:14:53.844Z,67.20
2022-09-16T04:17:20.538Z,67.44
2022-09-16T04:19:47.266Z,67.55
2022-09-16T04:22:13.976Z,67.52
2022-09-16T04:24:41.093Z,67.53
2022-09-16T04:27:07.802Z,67.35
2022-09-16T04:29:34.515Z,67.59
2022-09-16T04:32:01.285Z,67.37
2022-09-16T04:34:27.984Z,67.50
2022-09-16T04:36:54.682Z,67.61
2022-09-16T04:39:21.428Z,67.61
2022-09-16T04:41:48.218Z,67.61
2022-09-16T04:44:15.269Z,67.59
2022-09-16T04:46:42.058Z,67.48
2022-09-16T04:49:08.822Z,67.41
2022-09-16T04:51:35.548Z,67.71
2022-09-16T04:54:02.267Z,67.79
2022-09-16T04:56:31.393Z,67.00
2022-09-16T04:59:04.417Z,67.23
2022-09-16T05:01:33.141Z,67.52
2022-09-16T05:04:02.728Z,67.38
2022-09-16T05:06:32.389Z,67.46
2022-09-16T05:09:00.953Z,67.59
2022-09-16T05:11:29.701Z,67.62
2022-09-16T05:14:01.410Z,67.58
2022-09-16T05:16:28.570Z,67.52
2022-09-16T05:18:57.113Z,67.38
2022-09-16T05:21:25.184Z,67.50
2022-09-16T05:23:52.120Z,67.51
2022-09-16T05:26:21.001Z,67.71
2022-09-16T05:28:48.177Z,67.48
2022-09-16T05:31:25.560Z,67.65
2022-09-16T05:34:06.552Z,67.75
2022-09-16T05:36:35.252Z,67.50
2022-09-16T05:39:22.014Z,67.63
2022-09-16T05:41:49.659Z,67.63
2022-09-16T05:44:16.421Z,67.78
2022-09-16T05:46:43.825Z,67.93
2022-09-16T05:49:11.233Z,67.62
2022-09-16T05:51:39.267Z,67.67
2022-09-16T05:54:06.164Z,67.82
2022-09-16T05:56:32.960Z,67.70
2022-09-16T05:59:00.639Z,68.02
2022-09-16T06:01:31.471Z,67.85
2022-09-16T06:04:00.980Z,67.85
2022-09-16T06:06:29.818Z,68.02
2022-09-16T06:08:58.568Z,68.11
2022-09-16T06:11:26.965Z,67.83
2022-09-16T06:14:00.124Z,67.79
2022-09-16T06:16:27.992Z,67.73
2022-09-16T06:18:55.342Z,67.93
2022-09-16T06:21:22.109Z,67.97
2022-09-16T06:23:49.117Z,67.97
2022-09-16T06:26:18.369Z,68.08
2022-09-16T06:28:45.786Z,68.35
2022-09-16T06:31:17.605Z,68.16
2022-09-16T06:33:44.607Z,68.14
2022-09-16T06:36:14.241Z,68.25
2022-09-16T06:38:41.150Z,68.31
2022-09-16T06:41:09.297Z,68.17
2022-09-16T06:43:37.081Z,68.05
2022-09-16T06:46:18.397Z,67.84
2022-09-16T06:48:46.989Z,67.84
2022-09-16T06:51:16.405Z,67.86
2022-09-16T06:53:44.110Z,67.89
2022-09-16T06:56:13.684Z,67.98
2022-09-16T06:58:43.580Z,67.99
2022-09-16T07:01:14.209Z,68.21
2022-09-16T07:03:42.830Z,68.31
2022-09-16T07:06:10.650Z,68.30
2022-09-16T07:08:38.624Z,68.24
2022-09-16T07:11:06.362Z,68.06
2022-09-16T07:13:33.569Z,68.50
2022-09-16T07:16:13.621Z,68.28
2022-09-16T07:18:41.064Z,68.20
2022-09-16T07:21:13.781Z,68.42
2022-09-16T07:23:41.052Z,68.13
2022-09-16T07:26:11.068Z,67.37
2022-09-16T07:28:40.323Z,66.72
2022-09-16T07:31:09.407Z,65.32
2022-09-16T07:33:38.239Z,64.45
2022-09-16T07:36:05.739Z,62.94
2022-09-16T07:38:32.824Z,61.60
2022-09-16T07:41:14.549Z,61.14
2022-09-16T07:43:42.138Z,59.53
2022-09-16T07:46:10.729Z,59.75
2022-09-16T07:48:38.084Z,59.57
2022-09-16T07:51:11.021Z,59.55
2022-09-16T07:53:38.662Z,59.69
2022-09-16T07:56:16.957Z,60.27
2022-09-16T07:58:45.345Z,60.10
2022-09-16T08:01:13.197Z,59.80
2022-09-16T08:03:40.578Z,59.71
2022-09-16T08:06:18.363Z,59.87
2022-09-16T08:08:45.255Z,59.16
2022-09-16T08:11:14.246Z,59.50
2022-09-16T08:13:42.343Z,59.16
2022-09-16T08:16:13.288Z,59.75
2022-09-16T08:18:40.768Z,59.84
2022-09-16T08:21:08.908Z,59.99
2022-09-16T08:23:36.913Z,60.47
2022-09-16T08:26:04.472Z,61.13
2022-09-16T08:28:40.049Z,61.04
2022-09-16T08:31:12.720Z,61.46
2022-09-16T08:33:40.587Z,61.77
2022-09-16T08:36:12.197Z,62.69
2022-09-16T08:38:38.904Z,62.12
2022-09-16T08:41:31.983Z,62.62
2022-09-16T08:44:27.857Z,62.71
2022-09-16T08:47:02.709Z,62.88
2022-09-16T08:49:34.303Z,63.40
2022-09-16T08:52:04.401Z,62.77
2022-09-16T08:54:53.271Z,64.46
2022-09-16T08:57:26.970Z,65.21
2022-09-16T09:00:05.727Z,65.74
2022-09-16T09:02:47.711Z,65.80
2022-09-16T09:05:43.004Z,66.10
2022-09-16T09:08:34.676Z,66.44
2022-09-16T09:11:23.298Z,66.43
2022-09-16T09:13:55.573Z,66.73
2022-09-16T09:16:34.770Z,67.04
2022-09-16T09:19:08.859Z,66.81
2022-09-16T09:22:04.192Z,66.99
2022-09-16T09:24:57.075Z,66.78
2022-09-16T09:27:31.825Z,66.85
2022-09-16T09:30:20.304Z,66.42
2022-09-16T09:33:44.762Z,66.82
2022-09-16T09:36:36.506Z,66.45
2022-09-16T09:39:17.337Z,66.12
2022-09-16T09:41:51.262Z,65.58
2022-09-16T09:44:33.216Z,64.99
2022-09-16T09:47:04.560Z,65.51
2022-09-16T09:49:37.590Z,65.04
2022-09-16T09:52:04.204Z,65.13
2022-09-16T09:54:35.520Z,65.22
2022-09-16T09:57:22.289Z,65.00
2022-09-16T10:00:10.689Z,65.12
2022-09-16T10:02:40.690Z,64.31
2022-09-16T10:05:18.705Z,61.78
2022-09-16T10:07:45.751Z,64.43
2022-09-16T10:10:16.342Z,65.01
2022-09-16T10:12:43.197Z,64.15
2022-09-16T10:15:28.852Z,64.57
2022-09-16T10:17:58.822Z,65.17
2022-09-16T10:20:33.305Z,65.58
2022-09-16T10:23:02.019Z,64.88
2022-09-16T10:25:30.659Z,65.17
2022-09-16T10:28:00.829Z,64.66
2022-09-16T10:30:28.855Z,65.14
2022-09-16T10:32:56.669Z,65.05
2022-09-16T10:35:31.842Z,65.15
2022-09-16T10:38:04.359Z,64.89
2022-09-16T10:40:31.411Z,64.78
2022-09-16T10:43:07.040Z,64.91
2022-09-16T10:45:37.749Z,64.41
2022-09-16T10:48:08.134Z,63.97
2022-09-16T10:50:34.852Z,64.25
2022-09-16T10:53:01.649Z,64.39
2022-09-16T10:55:35.371Z,63.49
2022-09-16T10:58:16.377Z,63.92
2022-09-16T11:01:02.215Z,63.69
2022-09-16T11:03:46.336Z,61.21
2022-09-16T11:06:32.870Z,61.07
2022-09-16T11:09:20.809Z,62.06
2022-09-16T11:12:01.747Z,62.38
2022-09-16T11:14:46.576Z,63.04
2022-09-16T11:17:36.522Z,63.76
2022-09-16T11:20:22.080Z,63.66
2022-09-16T11:23:28.579Z,63.88
2022-09-16T11:26:41.663Z,64.61
2022-09-16T11:29:27.526Z,64.81
2022-09-16T11:31:54.623Z,64.87
2022-09-16T11:34:38.662Z,65.07
2022-09-16T11:37:17.545Z,65.54
2022-09-16T11:39:59.583Z,65.65
2022-09-16T11:42:41.609Z,66.21
2022-09-16T11:45:40.277Z,66.66
2022-09-16T11:48:29.669Z,66.59
2022-09-16T11:51:03.625Z,65.08
2022-09-16T11:53:57.309Z,66.51
2022-09-16T11:56:35.066Z,66.97
2022-09-16T11:59:30.565Z,66.47
2022-09-16T12:02:25.579Z,67.15
2022-09-16T12:05:14.739Z,66.83
2022-09-16T12:07:46.550Z,66.56
2022-09-16T12:10:15.646Z,66.24
2022-09-16T12:12:52.347Z,66.08
2022-09-16T12:18:09.752Z,65.73
2022-09-16T12:20:43.925Z,66.08
2022-09-16T12:23:32.041Z,66.33
2022-09-16T12:26:14.411Z,66.51
2022-09-16T12:28:46.817Z,66.00
2022-09-16T12:31:40.225Z,66.09
2022-09-16T12:34:13.472Z,65.89
2022-09-16T12:36:43.131Z,66.14
2022-09-16T12:39:12.062Z,65.93
2022-09-16T12:42:03.508Z,65.44
2022-09-16T12:44:43.781Z,64.52
2022-09-16T12:47:25.997Z,64.42
2022-09-16T12:50:21.390Z,63.56
2022-09-16T12:53:35.608Z,63.05
2022-09-16T12:56:33.931Z,62.21
2022-09-16T12:59:15.473Z,61.49
2022-09-16T13:01:45.596Z,61.99
2022-09-16T13:04:21.976Z,59.03
2022-09-16T13:06:53.552Z,61.08
2022-09-16T13:09:25.851Z,61.79
2022-09-16T13:14:50.655Z,59.99
2022-09-16T13:17:28.218Z,60.12
2022-09-16T13:19:55.791Z,61.14
2022-09-16T13:22:40.631Z,61.82
2022-09-16T13:25:20.171Z,62.17
2022-09-16T13:28:01.667Z,61.57
2022-09-16T13:30:38.214Z,62.26
2022-09-16T13:33:28.171Z,61.63
2022-09-16T13:36:16.038Z,62.71
2022-09-16T13:38:49.800Z,61.63
2022-09-16T13:41:37.109Z,60.99
2022-09-16T13:44:26.505Z,62.18
2022-09-16T13:46:53.466Z,62.08
2022-09-16T13:49:25.527Z,60.87
2022-09-16T13:51:52.496Z,61.98
2022-09-16T13:54:25.315Z,60.64
2022-09-16T13:57:12.046Z,61.95
2022-09-16T13:59:45.956Z,62.50
2022-09-16T14:02:56.604Z,61.36
2022-09-16T14:05:47.716Z,61.59
2022-09-16T14:08:22.937Z,61.89
2022-09-16T14:11:01.919Z,62.23
2022-09-16T14:13:37.438Z,61.99
2022-09-16T14:16:05.552Z,61.83
2022-09-16T14:18:33.941Z,62.54
2022-09-16T14:21:06.671Z,62.48
2022-09-16T14:23:33.842Z,62.52
2022-09-16T14:26:14.740Z,62.66
2022-09-16T14:28:41.594Z,62.30
2022-09-16T14:31:22.278Z,62.72
2022-09-16T14:33:58.815Z,62.09
2022-09-16T14:36:26.260Z,62.27
2022-09-16T14:39:04.603Z,62.15
2022-09-16T14:41:38.714Z,62.31
2022-09-16T14:44:17.274Z,61.99
2022-09-16T14:46:46.733Z,62.18
2022-09-16T14:49:14.632Z,62.27
2022-09-16T14:51:50.791Z,62.24
2022-09-16T14:54:22.300Z,62.43
2022-09-16T14:57:00.443Z,62.43
2022-09-16T14:59:48.179Z,62.50
2022-09-16T15:02:28.527Z,62.77
2022-09-16T15:04:59.623Z,62.55
2022-09-16T15:07:30.209Z,62.91
2022-09-16T15:10:07.806Z,62.85
2022-09-16T15:12:38.223Z,62.83
2022-09-16T15:15:10.413Z,63.00
2022-09-16T15:17:37.124Z,62.89
2022-09-16T15:20:03.856Z,62.89
2022-09-16T15:22:30.532Z,62.74
2022-09-16T15:24:59.318Z,62.84
2022-09-16T15:27:31.631Z,62.73
2022-09-16T15:30:00.765Z,62.63
2022-09-16T15:32:31.485Z,62.81
2022-09-16T15:35:22.133Z,62.55
2022-09-16T15:37:49.584Z,62.93
2022-09-16T15:40:23.715Z,62.91
2022-09-16T15:43:16.384Z,62.77
2022-09-16T15:45:44.569Z,62.68
2022-09-16T15:48:13.508Z,62.90
2022-09-16T15:51:03.638Z,62.81
2022-09-16T15:53:30.270Z,62.62
2022-09-16T15:56:05.954Z,62.55
2022-09-16T15:58:32.597Z,62.82
2022-09-16T16:01:00.766Z,62.89
2022-09-16T16:03:49.921Z,62.84
2022-09-16T16:06:16.624Z,62.80
2022-09-16T16:08:48.901Z,62.75
2022-09-16T16:11:20.117Z,63.04
2022-09-16T16:13:47.349Z,62.81
2022-09-16T16:16:15.152Z,62.98
2022-09-16T16:18:42.867Z,62.65
2022-09-16T16:21:12.138Z,63.02
2022-09-16T16:23:39.123Z,62.82
2022-09-16T16:26:07.749Z,62.84
2022-09-16T16:28:34.871Z,63.26
2022-09-16T16:31:16.307Z,63.29
2022-09-16T16:33:47.821Z,63.20
2022-09-16T16:36:16.601Z,63.35
2022-09-16T16:38:45.455Z,63.40
2022-09-16T16:41:13.465Z,63.46
2022-09-16T16:43:40.530Z,63.45
2022-09-16T16:46:07.356Z,63.25
2022-09-16T16:48:34.277Z,63.19
2022-09-16T16:51:08.032Z,63.28
2022-09-16T16:53:35.133Z,63.20
2022-09-16T16:56:14.851Z,63.31
2022-09-16T16:58:45.175Z,63.44
2022-09-16T17:01:14.060Z,63.50
2022-09-16T17:03:41.200Z,63.50
2022-09-16T17:06:08.428Z,63.77
2022-09-16T17:08:35.644Z,63.62
2022-09-16T17:11:06.979Z,63.51
2022-09-16T17:13:34.272Z,63.44
2022-09-16T17:16:01.282Z,63.31
2022-09-16T17:18:28.180Z,63.01
2022-09-16T17:21:02.118Z,62.86
2022-09-16T17:23:28.916Z,62.35
2022-09-16T17:25:55.739Z,62.69
2022-09-16T17:28:22.494Z,62.93
2022-09-16T17:30:49.700Z,62.79
2022-09-16T17:33:16.546Z,63.00
2022-09-16T17:35:43.308Z,63.07
2022-09-16T17:38:10.529Z,63.13
2022-09-16T17:40:37.493Z,63.24
2022-09-16T17:43:04.421Z,63.13
2022-09-16T17:45:34.215Z,63.20
2022-09-16T17:48:01.654Z,63.43
2022-09-16T17:50:28.648Z,63.70
2022-09-16T17:52:55.549Z,63.58
2022-09-16T17:55:22.347Z,63.67
2022-09-16T17:57:49.093Z,63.71
2022-09-16T18:00:16.206Z,63.82
2022-09-16T18:02:43.073Z,64.02
2022-09-16T18:05:09.930Z,64.02
2022-09-16T18:07:36.821Z,63.96
2022-09-16T18:10:04.069Z,63.97
2022-09-16T18:12:30.914Z,64.01
2022-09-16T18:14:58.384Z,64.11
2022-09-16T18:17:25.227Z,64.06
2022-09-16T18:19:51.946Z,64.25
2022-09-16T18:22:19.709Z,64.27
2022-09-16T18:24:46.797Z,64.30
2022-09-16T18:27:13.796Z,64.23
2022-09-16T18:29:40.746Z,64.16
2022-09-16T18:32:07.985Z,64.37
2022-09-16T18:34:34.804Z,64.60
2022-09-16T18:37:01.541Z,64.66
2022-09-16T18:39:28.372Z,64.32
2022-09-16T18:41:56.168Z,64.67
2022-09-16T18:44:25.774Z,64.66
2022-09-16T18:46:53.216Z,64.65
2022-09-16T18:49:22.064Z,64.74
2022-09-16T18:51:52.005Z,64.62
2022-09-16T18:54:27.842Z,64.81
2022-09-16T18:56:59.752Z,64.76
2022-09-16T18:59:34.160Z,64.76
2022-09-16T19:02:03.377Z,64.73
2022-09-16T19:04:32.391Z,64.68
2022-09-16T19:07:05.940Z,64.78
2022-09-16T19:09:34.713Z,64.94
2022-09-16T19:12:01.461Z,64.47
2022-09-16T19:14:28.499Z,64.93
2022-09-16T19:16:55.288Z,64.98
2022-09-16T19:19:22.500Z,65.02
2022-09-16T19:21:49.388Z,64.96
2022-09-16T19:24:18.307Z,65.04
2022-09-16T19:26:46.066Z,65.15
2022-09-16T19:29:14.774Z,65.20
2022-09-16T19:31:42.778Z,65.22
2022-09-16T19:34:09.525Z,65.18
2022-09-16T19:36:37.172Z,65.29
2022-09-16T19:39:04.898Z,65.01
2022-09-16T19:41:33.023Z,65.18
2022-09-16T19:44:02.234Z,65.29
2022-09-16T19:46:31.758Z,65.29
2022-09-16T19:48:58.980Z,65.27
2022-09-16T19:51:26.069Z,65.22
2022-09-16T19:53:53.829Z,65.18
2022-09-16T19:56:26.053Z,65.27
2022-09-16T19:58:53.684Z,65.17
2022-09-16T20:01:22.447Z,65.28
2022-09-16T20:03:49.389Z,65.53
2022-09-16T20:06:24.551Z,65.33
2022-09-16T20:08:59.754Z,65.30
2022-09-16T20:11:31.455Z,65.31
2022-09-16T20:14:00.808Z,65.31
2022-09-16T20:16:38.639Z,65.32
2022-09-16T20:19:08.450Z,65.10
2022-09-16T20:21:35.709Z,65.24
2022-09-16T20:24:05.715Z,65.13
2022-09-16T20:26:34.075Z,65.38
2022-09-16T20:29:01.607Z,65.41
2022-09-16T20:31:33.567Z,65.51
2022-09-16T20:34:00.614Z,65.39
2022-09-16T20:36:30.468Z,65.39
2022-09-16T20:38:59.509Z,65.39
2022-09-16T20:41:29.315Z,65.28
2022-09-16T20:43:56.666Z,65.39
2022-09-16T20:46:25.430Z,65.37
2022-09-16T20:48:54.507Z,65.49
2022-09-16T20:51:23.230Z,65.53
2022-09-16T20:53:58.019Z,65.42
2022-09-16T20:56:25.688Z,65.14
2022-09-16T20:58:52.837Z,65.49
2022-09-16T21:01:24.699Z,65.43
2022-09-16T21:03:53.610Z,65.48
2022-09-16T21:06:20.834Z,65.47
2022-09-16T21:08:47.699Z,65.74
2022-09-16T21:11:19.042Z,65.39
2022-09-16T21:13:51.399Z,65.55
2022-09-16T21:16:18.190Z,65.67
2022-09-16T21:18:44.930Z,65.89
2022-09-16T21:21:12.639Z,65.43
2022-09-16T21:23:39.789Z,65.75
2022-09-16T21:26:18.113Z,65.71
2022-09-16T21:28:45.913Z,65.81
2022-09-16T21:31:14.517Z,65.70
2022-09-16T21:33:42.863Z,65.81
2022-09-16T21:36:11.370Z,65.87
2022-09-16T21:38:38.641Z,65.99
2022-09-16T21:41:07.888Z,65.79
2022-09-16T21:43:39.145Z,66.00
2022-09-16T21:46:06.500Z,65.90
2022-09-16T21:48:33.278Z,65.92
2022-09-16T21:51:08.141Z,65.86
2022-09-16T21:53:37.252Z,66.17
2022-09-16T21:56:05.963Z,66.27
2022-09-16T21:58:33.400Z,66.30
2022-09-16T22:01:11.493Z,66.25
2022-09-16T22:03:42.322Z,66.34
2022-09-16T22:06:11.203Z,66.44
2022-09-16T22:08:38.257Z,66.49
2022-09-16T22:11:09.420Z,66.50
2022-09-16T22:13:36.603Z,66.62
2022-09-16T22:16:04.435Z,66.57
2022-09-16T22:18:31.271Z,66.57
2022-09-16T22:21:10.215Z,66.68
2022-09-16T22:23:38.291Z,66.59
2022-09-16T22:26:11.203Z,66.47
2022-09-16T22:28:38.631Z,66.58
2022-09-16T22:31:17.177Z,66.77
2022-09-16T22:33:45.831Z,66.48
2022-09-16T22:36:17.651Z,66.84
2022-09-16T22:38:48.485Z,66.82
2022-09-16T22:41:16.451Z,66.93
2022-09-16T22:43:46.823Z,66.81
2022-09-16T22:46:15.652Z,66.91
2022-09-16T22:48:43.703Z,66.96
2022-09-16T22:51:11.454Z,66.84
2022-09-16T22:53:38.212Z,66.84
2022-09-16T22:56:07.361Z,66.94
2022-09-16T22:58:34.487Z,67.10
2022-09-16T23:01:13.379Z,67.06
2022-09-16T23:03:40.814Z,67.20
2022-09-16T23:06:11.168Z,67.17
2022-09-16T23:08:39.551Z,67.25
2022-09-16T23:11:08.430Z,67.44
2022-09-16T23:13:36.182Z,67.34
2022-09-16T23:16:06.698Z,67.43
2022-09-16T23:18:34.735Z,67.51
2022-09-16T23:21:03.787Z,67.45
2022-09-16T23:23:31.850Z,67.51
2022-09-16T23:26:02.514Z,67.35
2022-09-16T23:28:29.429Z,67.25
2022-09-16T23:30:56.385Z,67.39
2022-09-16T23:33:26.071Z,67.39
2022-09-16T23:35:52.820Z,67.49
2022-09-16T23:38:19.873Z,67.34
2022-09-16T23:40:46.621Z,67.61
2022-09-16T23:43:13.401Z,67.47
2022-09-16T23:45:40.735Z,67.37
2022-09-16T23:48:08.127Z,67.52
2022-09-16T23:50:35.003Z,67.46
2022-09-16T23:53:01.745Z,67.50
2022-09-16T23:55:28.527Z,67.50
2022-09-16T23:57:55.388Z,67.91
